createdAt,value
2022-08-25T00:04:59.257Z,22.7
2022-08-25T00:09:59.537Z,22.5
2022-08-25T00:14:59.688Z,22.6
2022-08-25T00:19:59.236Z,22.5
2022-08-25T00:24:59.339Z,22.4
2022-08-25T00:29:59.301Z,22.4
2022-08-25T00:34:59.476Z,22.4
2022-08-25T00:39:59.369Z,22.3
2022-08-25T00:45:00.468Z,22.4
2022-08-25T00:49:59.264Z,22.3
2022-08-25T00:55:03.035Z,22.3
2022-08-25T00:59:59.286Z,22.4
2022-08-25T01:04:59.386Z,22.1
2022-08-25T01:09:59.463Z,22.1
2022-08-25T01:14:59.178Z,21.9
2022-08-25T01:19:59.453Z,21.8
2022-08-25T01:24:59.602Z,21.9
2022-08-25T01:29:59.536Z,22
2022-08-25T01:34:59.430Z,22
2022-08-25T01:39:59.952Z,22
2022-08-25T01:44:59.460Z,22
2022-08-25T01:49:59.352Z,22
2022-08-25T01:54:59.322Z,21.9
2022-08-25T01:59:59.625Z,21.9
2022-08-25T02:04:59.291Z,21.7
2022-08-25T02:09:59.370Z,22
2022-08-25T02:14:59.133Z,21.7
2022-08-25T02:19:59.300Z,21.8
2022-08-25T02:24:59.699Z,21.9
2022-08-25T02:29:59.090Z,21.9
2022-08-25T02:34:59.344Z,22.1
2022-08-25T02:39:59.279Z,22
2022-08-25T02:44:59.390Z,22
2022-08-25T02:49:59.164Z,22.1
2022-08-25T02:54:59.381Z,21.9
2022-08-25T02:59:59.404Z,21.9
2022-08-25T03:04:59.437Z,22
2022-08-25T03:10:02.961Z,22.2
2022-08-25T03:14:59.416Z,22
2022-08-25T03:19:59.265Z,22
2022-08-25T03:24:59.744Z,22
2022-08-25T03:29:59.201Z,21.9
2022-08-25T03:34:59.154Z,22
2022-08-25T03:39:59.503Z,22
2022-08-25T03:44:59.154Z,21.8
2022-08-25T03:49:59.284Z,21.8
2022-08-25T03:54:59.243Z,22
2022-08-25T03:59:59.210Z,21.8
2022-08-25T04:04:59.342Z,21.7
2022-08-25T04:09:59.145Z,21.7
2022-08-25T04:14:59.141Z,21.6
2022-08-25T04:20:00.407Z,21.5
2022-08-25T04:24:59.253Z,21.4
2022-08-25T04:29:59.241Z,21.4
2022-08-25T04:34:59.078Z,21.4
2022-08-25T04:39:59.481Z,21.3
2022-08-25T04:44:59.175Z,21.3
2022-08-25T04:49:59.261Z,21.2
2022-08-25T04:54:59.751Z,21.5
2022-08-25T04:59:59.333Z,21.3
2022-08-25T05:04:59.159Z,21.2
2022-08-25T05:09:59.116Z,21.4
2022-08-25T05:14:59.387Z,21.4
2022-08-25T05:19:59.247Z,21.3
2022-08-25T05:24:59.373Z,21.3
2022-08-25T05:29:59.381Z,21.3
2022-08-25T05:34:59.324Z,21.3
2022-08-25T05:39:59.256Z,21.1
2022-08-25T05:44:59.512Z,21.2
2022-08-25T05:49:59.115Z,21.2
2022-08-25T05:54:59.573Z,21.5
2022-08-25T05:59:59.295Z,21.4
2022-08-25T06:04:59.520Z,21.5
2022-08-25T06:09:59.383Z,21.5
2022-08-25T06:14:59.415Z,21.6
2022-08-25T06:19:59.256Z,21.8
2022-08-25T06:24:59.119Z,22
2022-08-25T06:29:59.249Z,22.1
2022-08-25T06:34:59.422Z,22.1
2022-08-25T06:39:59.716Z,22.4
2022-08-25T06:44:59.086Z,22.3
2022-08-25T06:49:59.270Z,22.5
2022-08-25T06:54:59.260Z,22.6
2022-08-25T06:59:58.989Z,22.7
2022-08-25T07:04:59.339Z,22.5
2022-08-25T07:09:59.102Z,22.5
2022-08-25T07:15:17.216Z,22.5
2022-08-25T07:19:59.037Z,22.6
2022-08-25T07:24:59.397Z,22.6
2022-08-25T07:29:59.159Z,22.8
2022-08-25T07:34:59.049Z,22.9
2022-08-25T07:39:59.071Z,23.5
2022-08-25T07:44:59.054Z,23.9
2022-08-25T07:49:58.899Z,24.2
2022-08-25T07:54:59.036Z,24.5
2022-08-25T07:59:59.270Z,24.8
2022-08-25T08:04:59.520Z,24.8
2022-08-25T08:10:25.635Z,25
2022-08-25T08:14:59.299Z,25.2
2022-08-25T08:19:59.243Z,25.6
2022-08-25T08:24:59.180Z,25.9
2022-08-25T08:29:59.186Z,26
2022-08-25T08:34:59.420Z,26.2
2022-08-25T08:39:59.137Z,26.5
2022-08-25T08:45:01.998Z,26.6
2022-08-25T08:49:58.956Z,26.9
2022-08-25T08:54:59.182Z,27.2
2022-08-25T08:59:59.058Z,27.4
2022-08-25T09:04:59.113Z,27.7
2022-08-25T09:09:59.824Z,27.8
2022-08-25T09:14:59.141Z,28
2022-08-25T09:20:18.368Z,28.2
2022-08-25T09:25:07.954Z,28.3
2022-08-25T09:30:00.563Z,28.3
2022-08-25T09:35:00.586Z,28.5
2022-08-25T09:39:59.126Z,28.8
2022-08-25T09:44:59.093Z,28.8
2022-08-25T09:49:58.963Z,29.2
2022-08-25T09:54:59.134Z,29.5
2022-08-25T10:00:16.965Z,29.5
2022-08-25T10:04:59.091Z,29.7
2022-08-25T10:09:59.142Z,30.1
2022-08-25T10:14:59.131Z,30.3
2022-08-25T10:19:58.909Z,30.1
2022-08-25T10:24:59.032Z,30.5
2022-08-25T10:29:58.977Z,30.7
2022-08-25T10:34:59.250Z,30.8
2022-08-25T10:40:06.172Z,30.8
2022-08-25T10:44:58.944Z,30.8
2022-08-25T10:49:58.854Z,30.5
2022-08-25T10:55:03.346Z,31
2022-08-25T10:59:59.135Z,31.5
2022-08-25T11:05:01.781Z,31.6
2022-08-25T11:09:59.093Z,31.2
2022-08-25T11:15:00.977Z,31
2022-08-25T11:19:58.815Z,30.8
2022-08-25T11:24:58.727Z,30.9
2022-08-25T11:30:03.089Z,30.6
2022-08-25T11:34:59.439Z,31
2022-08-25T11:39:58.906Z,31.5
2022-08-25T11:44:58.892Z,32
2022-08-25T11:49:59.980Z,32
2022-08-25T11:54:58.881Z,32.9
2022-08-25T11:59:58.869Z,32.9
2022-08-25T12:04:59.346Z,33.3
2022-08-25T12:10:18.870Z,33.2
2022-08-25T12:15:13.076Z,32.9
2022-08-25T12:19:59.229Z,32.5
2022-08-25T12:24:58.901Z,33.3
2022-08-25T12:29:58.990Z,33.7
2022-08-25T12:35:09.376Z,34.3
2022-08-25T12:39:59.033Z,34.4
2022-08-25T12:44:58.979Z,34.1
2022-08-25T12:50:24.548Z,34.1
2022-08-25T12:55:01.726Z,34.6
2022-08-25T13:00:05.463Z,35.2
2022-08-25T13:04:59.109Z,35.1
2022-08-25T13:09:59.116Z,35.5
2022-08-25T13:14:59.177Z,35.4
2022-08-25T13:19:58.941Z,35.1
2022-08-25T13:29:58.970Z,36.4
2022-08-25T13:34:58.943Z,36.5
2022-08-25T13:40:07.306Z,35.5
2022-08-25T13:44:58.938Z,35.3
2022-08-25T13:50:14.067Z,33.6
2022-08-25T13:54:59.919Z,33.9
2022-08-25T13:59:58.792Z,34.7
2022-08-25T14:04:59.071Z,34
2022-08-25T14:09:58.777Z,34.5
2022-08-25T14:14:58.991Z,33
2022-08-25T14:19:58.858Z,32.2
2022-08-25T14:24:59.018Z,32.2
2022-08-25T14:29:59.162Z,31.7
2022-08-25T14:34:58.890Z,31.6
2022-08-25T14:39:59.257Z,32.5
2022-08-25T14:44:59.016Z,32
2022-08-25T14:49:58.712Z,32.1
2022-08-25T14:54:59.074Z,31.5
2022-08-25T14:59:58.754Z,32.3
2022-08-25T15:04:58.679Z,31.8
2022-08-25T15:09:59.023Z,32.3
2022-08-25T15:14:58.870Z,33.8
2022-08-25T15:19:58.770Z,34.5
2022-08-25T15:24:58.658Z,34.7
2022-08-25T15:29:58.635Z,34.1
2022-08-25T15:34:58.935Z,34.6
2022-08-25T15:39:58.717Z,34.4
2022-08-25T15:44:58.870Z,34.2
2022-08-25T15:49:58.938Z,34
2022-08-25T15:54:58.926Z,34.3
2022-08-25T15:59:58.676Z,33.2
2022-08-25T16:04:58.725Z,33.1
2022-08-25T16:09:59.482Z,33
2022-08-25T16:14:58.904Z,32.3
2022-08-25T16:19:59.281Z,32.5
2022-08-25T16:24:58.918Z,31.8
2022-08-25T16:29:58.695Z,31.2
2022-08-25T16:34:58.766Z,30.5
2022-08-25T16:39:58.936Z,30.2
2022-08-25T16:44:58.815Z,29.4
2022-08-25T16:49:58.822Z,29.1
2022-08-25T16:54:58.605Z,28.6
2022-08-25T16:59:58.657Z,28.2
2022-08-25T17:04:58.831Z,27.4
2022-08-25T17:09:58.548Z,27.6
2022-08-25T17:14:59.358Z,27.8
2022-08-25T17:19:58.991Z,27.7
2022-08-25T17:25:01.010Z,27.7
2022-08-25T17:29:58.685Z,27.3
2022-08-25T17:34:58.709Z,27.1
2022-08-25T17:40:02.660Z,27
2022-08-25T17:44:58.758Z,26.6
2022-08-25T17:49:59.015Z,26.9
2022-08-25T17:54:58.952Z,27
2022-08-25T17:59:58.531Z,26.5
2022-08-25T18:05:00.580Z,26.5
2022-08-25T18:09:58.738Z,26.4
2022-08-25T18:14:58.938Z,26.2
2022-08-25T18:19:58.914Z,26.3
2022-08-25T18:24:59.256Z,26.1
2022-08-25T18:29:58.761Z,25.9
2022-08-25T18:34:59.189Z,25.3
2022-08-25T18:40:00.429Z,25.4
2022-08-25T18:45:00.659Z,25.2
2022-08-25T18:50:04.255Z,24.6
2022-08-25T18:55:00.509Z,24.7
2022-08-25T19:00:00.772Z,24.5
2022-08-25T19:05:04.761Z,24.5
2022-08-25T19:10:00.523Z,24.3
2022-08-25T19:15:00.292Z,24
2022-08-25T19:20:00.529Z,23.5
2022-08-25T19:25:00.542Z,23.7
2022-08-25T19:30:00.586Z,23.8
2022-08-25T19:35:00.759Z,23.4
2022-08-25T19:40:00.452Z,23.5
2022-08-25T19:45:00.850Z,23.6
2022-08-25T19:50:00.573Z,23.5
2022-08-25T19:55:00.661Z,23.2
2022-08-25T20:00:00.295Z,23.1
2022-08-25T20:05:00.457Z,22.9
2022-08-25T20:10:00.421Z,23.1
2022-08-25T20:15:00.289Z,22.9
2022-08-25T20:20:00.324Z,22.8
2022-08-25T20:25:00.563Z,22.5
2022-08-25T20:30:02.833Z,22.3
2022-08-25T20:35:00.369Z,22
2022-08-25T20:40:01.245Z,22.1
2022-08-25T20:45:00.222Z,22.1
2022-08-25T20:50:05.900Z,22
2022-08-25T20:55:00.470Z,22.1
2022-08-25T21:00:00.894Z,22
2022-08-25T21:05:00.369Z,21.6
2022-08-25T21:10:00.566Z,21.7
2022-08-25T21:15:00.348Z,21.6
2022-08-25T21:20:00.617Z,21.7
2022-08-25T21:25:00.355Z,21.8
2022-08-25T21:30:00.372Z,21.7
2022-08-25T21:35:00.406Z,21.8
2022-08-25T21:40:00.516Z,22
2022-08-25T21:45:00.447Z,21.8
2022-08-25T21:50:00.605Z,21.5
2022-08-25T21:55:00.392Z,21.5
2022-08-25T22:00:00.552Z,21.5
2022-08-25T22:05:00.441Z,21.4
2022-08-25T22:10:00.300Z,21.6
2022-08-25T22:15:00.361Z,21.6
2022-08-25T22:20:00.322Z,21.3
2022-08-25T22:25:00.424Z,21.5
2022-08-25T22:30:00.396Z,21.2
2022-08-25T22:35:00.740Z,21.4
2022-08-25T22:40:00.492Z,21.1
2022-08-25T22:45:00.360Z,21.3
2022-08-25T22:50:00.584Z,21.1
2022-08-25T22:55:00.128Z,21.2
2022-08-25T23:00:00.160Z,21.1
2022-08-25T23:05:01.125Z,20.9
2022-08-25T23:10:00.332Z,21.1
2022-08-25T23:15:00.624Z,21.1
2022-08-25T23:20:01.279Z,21.1
2022-08-25T23:25:00.319Z,21.1
2022-08-25T23:30:00.483Z,21.1
2022-08-25T23:35:00.520Z,21.1
2022-08-25T23:40:00.424Z,21.1
2022-08-25T23:45:00.577Z,21
2022-08-25T23:50:00.623Z,21.1
2022-08-25T23:55:00.494Z,21
